Terminal Aerodrome Forecast
Issued by NWS Jacksonville, FL

Home | Current Version | Previous Version | Text Only | Print | Product List | Glossary On
Versions: 1 2 3 4 5 6 7 8 9 10 11 12 13 14 15 16
082
FTUS42 KJAX 201121
TAFGNV
TAF
KGNV 201121Z 2012/2112 VRB03KT P6SM SCT250
     FM201500 33004KT P6SM FEW030 SCT250
     FM202100 06005KT P6SM SCT040 BKN250
     FM210200 VRB03KT P6SM FEW050 SCT250=

USA.gov is the U.S. government's official web portal to all federal, state and local government web resources and services.